createdAt,value
2018-05-29T00:00:02.103Z,22.46
2018-05-29T00:01:11.930Z,22.46
2018-05-29T00:02:22.013Z,22.38
2018-05-29T00:03:31.632Z,22.38
2018-05-29T00:04:41.461Z,22.38
2018-05-29T00:05:51.571Z,22.27
2018-05-29T00:07:01.688Z,22.3
2018-05-29T00:08:11.790Z,22.39
2018-05-29T00:09:21.908Z,22.34
2018-05-29T00:10:31.979Z,22.42
2018-05-29T00:11:41.787Z,22.26
2018-05-29T00:12:51.875Z,22.39
2018-05-29T00:14:01.946Z,22.44
2018-05-29T00:15:12.090Z,22.36
2018-05-29T00:16:21.658Z,22.45
2018-05-29T00:17:31.741Z,22.38
2018-05-29T00:18:41.839Z,22.3
2018-05-29T00:19:51.919Z,22.27
2018-05-29T00:21:01.746Z,22.27
2018-05-29T00:22:11.835Z,22.24
2018-05-29T00:23:21.651Z,22.24
2018-05-29T00:24:31.750Z,22.27
2018-05-29T00:25:41.843Z,22.29
2018-05-29T00:26:51.919Z,22.27
2018-05-29T00:28:02.000Z,22.3
2018-05-29T00:29:11.844Z,22.23
2018-05-29T00:30:21.408Z,22.23
2018-05-29T00:31:31.237Z,22.29
2018-05-29T00:32:41.315Z,22.29
2018-05-29T00:33:51.383Z,22.24
2018-05-29T00:35:01.201Z,22.3
2018-05-29T00:36:11.278Z,22.23
2018-05-29T00:37:21.107Z,22.27
2018-05-29T00:38:30.942Z,22.16
2018-05-29T00:39:41.015Z,22.24
2018-05-29T00:40:51.099Z,22.24
2018-05-29T00:42:01.212Z,22.23
2018-05-29T00:43:11.034Z,22.27
2018-05-29T00:44:21.141Z,22.16
2018-05-29T00:45:30.957Z,22.24
2018-05-29T00:46:40.801Z,22.3
2018-05-29T00:47:50.882Z,22.15
2018-05-29T00:49:00.969Z,22.27
2018-05-29T00:50:11.095Z,22.18
2018-05-29T00:51:21.172Z,22.27
2018-05-29T00:52:30.994Z,22.24
2018-05-29T00:53:40.820Z,22.23
2018-05-29T00:54:50.637Z,22.23
2018-05-29T00:56:00.810Z,22.22
2018-05-29T00:57:10.885Z,22.14
2018-05-29T00:58:20.700Z,22.22
2018-05-29T00:59:30.770Z,22.24
2018-05-29T01:00:40.859Z,22.27
2018-05-29T01:01:50.986Z,22.24
2018-05-29T01:03:00.797Z,22.23
2018-05-29T01:04:10.617Z,22.18
2018-05-29T01:05:20.705Z,22.16
2018-05-29T01:06:30.797Z,22.11
2018-05-29T01:07:40.880Z,22.11
2018-05-29T01:08:50.980Z,22.14
2018-05-29T01:10:00.793Z,22.11
2018-05-29T01:11:10.600Z,22.12
2018-05-29T01:12:20.151Z,22.15
2018-05-29T01:13:30.014Z,22.15
2018-05-29T01:14:39.847Z,22.12
2018-05-29T01:15:49.681Z,22.12
2018-05-29T01:16:59.505Z,22.16
2018-05-29T01:18:09.585Z,22.15
2018-05-29T01:19:19.656Z,22.14
2018-05-29T01:20:29.736Z,22.23
2018-05-29T01:21:39.841Z,22.18
2018-05-29T01:22:49.920Z,22.09
2018-05-29T01:24:00.016Z,22.11
2018-05-29T01:25:10.232Z,22.16
2018-05-29T01:26:20.325Z,22.11
2018-05-29T01:27:30.387Z,22.08
2018-05-29T01:28:40.210Z,22.09
2018-05-29T01:29:50.026Z,22.09
2018-05-29T01:30:59.852Z,22.02
2018-05-29T01:32:09.406Z,22.07
2018-05-29T01:33:19.501Z,22.07
2018-05-29T01:34:29.591Z,21.93
2018-05-29T01:35:39.419Z,21.96
2018-05-29T01:36:49.237Z,21.93
2018-05-29T01:37:59.303Z,22
2018-05-29T01:39:09.392Z,21.99
2018-05-29T01:40:20.042Z,21.97
2018-05-29T01:41:29.866Z,21.93
2018-05-29T01:42:39.734Z,21.92
2018-05-29T01:43:49.845Z,21.86
2018-05-29T01:44:59.933Z,21.93
2018-05-29T01:46:10.022Z,21.83
2018-05-29T01:47:19.847Z,21.86
2018-05-29T01:48:29.953Z,21.83
2018-05-29T01:49:40.038Z,21.89
2018-05-29T01:50:50.108Z,21.82
2018-05-29T01:51:59.936Z,21.78
2018-05-29T01:53:10.008Z,21.86
2018-05-29T01:54:20.087Z,21.78
2018-05-29T01:55:29.976Z,21.77
2018-05-29T01:56:39.536Z,21.7
2018-05-29T01:57:49.353Z,21.78
2018-05-29T01:58:59.185Z,21.74
2018-05-29T02:00:09.427Z,21.7
2018-05-29T02:01:19.514Z,21.68
2018-05-29T02:02:29.600Z,21.66
2018-05-29T02:03:39.432Z,21.77
2018-05-29T02:04:49.514Z,21.7
2018-05-29T02:05:59.321Z,21.7
2018-05-29T02:07:09.151Z,21.7
2018-05-29T02:08:19.231Z,21.7
2018-05-29T02:09:29.311Z,21.7
2018-05-29T02:10:39.399Z,21.64
2018-05-29T02:11:49.493Z,21.62
2018-05-29T02:12:59.576Z,21.64
2018-05-29T02:14:09.664Z,21.68
2018-05-29T02:15:19.483Z,21.64
2018-05-29T02:16:29.300Z,21.58
2018-05-29T02:17:38.853Z,21.59
2018-05-29T02:18:48.926Z,21.62
2018-05-29T02:19:59.017Z,21.58
2018-05-29T02:21:09.096Z,21.62
2018-05-29T02:22:18.911Z,21.62
2018-05-29T02:23:29.043Z,21.66
2018-05-29T02:24:39.144Z,21.58
2018-05-29T02:25:48.959Z,21.58
2018-05-29T02:26:59.048Z,21.61
2018-05-29T02:28:08.876Z,21.58
2018-05-29T02:29:19.000Z,21.53
2018-05-29T02:30:28.885Z,21.56
2018-05-29T02:31:38.995Z,21.61
2018-05-29T02:32:48.555Z,21.53
2018-05-29T02:33:58.413Z,21.55
2018-05-29T02:35:08.543Z,21.55
2018-05-29T02:36:18.372Z,21.48
2018-05-29T02:37:28.480Z,21.67
2018-05-29T02:38:38.578Z,21.59
2018-05-29T02:39:48.396Z,21.49
2018-05-29T02:40:58.489Z,21.46
2018-05-29T02:42:08.581Z,21.46
2018-05-29T02:43:18.736Z,21.41
2018-05-29T02:44:28.836Z,21.45
2018-05-29T02:45:38.948Z,21.45
2018-05-29T02:46:48.817Z,21.43
2018-05-29T02:47:58.919Z,21.38
2018-05-29T02:49:09.010Z,21.43
2018-05-29T02:50:19.095Z,21.43
2018-05-29T02:51:29.190Z,21.45
2018-05-29T02:52:39.480Z,21.45
2018-05-29T02:53:49.289Z,21.37
2018-05-29T02:54:59.353Z,21.36
2018-05-29T02:56:09.455Z,21.33
2018-05-29T02:57:19.536Z,21.34
2018-05-29T02:58:29.401Z,21.34
2018-05-29T02:59:39.477Z,21.4
2018-05-29T03:00:49.309Z,21.41
2018-05-29T03:01:59.379Z,21.41
2018-05-29T03:03:09.454Z,21.37
2018-05-29T03:34:55.927Z,19.85
2018-05-29T03:36:05.994Z,19.86
2018-05-29T03:37:16.069Z,19.9
2018-05-29T03:38:25.869Z,19.98
2018-05-29T03:39:35.946Z,20
2018-05-29T03:40:46.084Z,20
2018-05-29T03:41:56.162Z,20.16
2018-05-29T03:43:05.987Z,20.27
2018-05-29T03:44:16.067Z,20.38
2018-05-29T03:45:26.139Z,20.49
2018-05-29T03:46:36.273Z,20.6
2018-05-29T03:47:46.342Z,20.83
2018-05-29T03:48:56.165Z,20.96
2018-05-29T03:50:05.971Z,21.15
2018-05-29T03:51:16.067Z,21.25
2018-05-29T03:52:26.249Z,21.33
2018-05-29T03:53:36.326Z,21.52
2018-05-29T03:54:46.417Z,21.62
2018-05-29T03:55:56.484Z,21.77
2018-05-29T03:57:06.300Z,21.83
2018-05-29T03:58:16.430Z,22
2018-05-29T03:59:26.512Z,22.16
2018-05-29T04:00:36.588Z,22.24
2018-05-29T04:01:46.692Z,22.26
2018-05-29T04:02:56.774Z,22.36
2018-05-29T04:04:06.611Z,22.48
2018-05-29T04:05:16.439Z,22.61
2018-05-29T04:06:26.535Z,22.73
2018-05-29T04:07:36.605Z,22.81
2018-05-29T04:08:46.684Z,22.88
2018-05-29T04:09:56.883Z,22.88
2018-05-29T04:11:06.755Z,23.01
2018-05-29T04:12:16.849Z,23.18
2018-05-29T04:13:26.946Z,23.18
2018-05-29T04:14:37.016Z,23.19
2018-05-29T04:15:47.238Z,23.4
2018-05-29T04:16:57.480Z,23.45
2018-05-29T04:18:07.728Z,23.59
2018-05-29T04:19:17.810Z,24.19
2018-05-29T04:20:27.356Z,25.3
2018-05-29T04:21:37.434Z,26.15
2018-05-29T04:22:47.538Z,26.81
2018-05-29T04:23:57.355Z,27.38
2018-05-29T04:25:07.182Z,27.91
2018-05-29T04:26:17.264Z,28.36
2018-05-29T04:27:27.381Z,28.76
2018-05-29T04:28:37.465Z,29.15
2018-05-29T04:29:47.569Z,29.51
2018-05-29T04:30:57.687Z,29.76
2018-05-29T04:32:07.501Z,30.07
2018-05-29T04:33:17.324Z,30.18
2018-05-29T04:34:27.423Z,30.47
2018-05-29T04:35:37.528Z,30.7
2018-05-29T04:36:47.339Z,30.99
2018-05-29T04:37:57.422Z,31.16
2018-05-29T04:39:07.302Z,31.18
2018-05-29T04:40:17.117Z,31.36
2018-05-29T04:41:27.204Z,31.52
2018-05-29T04:42:37.029Z,31.82
2018-05-29T04:43:47.329Z,31.87
2018-05-29T04:44:57.154Z,32.15
2018-05-29T04:46:07.224Z,32.32
2018-05-29T04:47:17.312Z,32.5
2018-05-29T04:48:27.144Z,32.68
2018-05-29T04:49:37.289Z,32.86
2018-05-29T04:50:47.492Z,32.93
2018-05-29T04:51:57.570Z,32.9
2018-05-29T04:53:07.660Z,32.96
2018-05-29T04:54:17.750Z,33.17
2018-05-29T04:55:27.886Z,33.24
2018-05-29T04:56:38.170Z,33.31
2018-05-29T04:57:48.330Z,33.36
2018-05-29T04:58:58.417Z,33.32
2018-05-29T05:00:08.260Z,33.39
2018-05-29T05:01:18.351Z,33.31
2018-05-29T05:02:28.422Z,33.39
2018-05-29T05:03:38.578Z,33.4
2018-05-29T05:04:48.396Z,33.44
2018-05-29T05:05:58.492Z,33.46
2018-05-29T05:07:08.590Z,33.48
2018-05-29T05:08:18.672Z,33.63
2018-05-29T05:09:28.749Z,33.71
2018-05-29T05:10:38.835Z,33.71
2018-05-29T05:11:48.933Z,33.69
2018-05-29T05:12:58.744Z,33.71
2018-05-29T05:14:08.577Z,33.71
2018-05-29T05:15:18.668Z,33.77
2018-05-29T05:16:28.743Z,33.73
2018-05-29T05:17:38.835Z,33.71
2018-05-29T05:18:48.926Z,33.73
2018-05-29T05:19:59.064Z,33.87
2018-05-29T05:21:09.150Z,33.89
2018-05-29T05:22:19.231Z,34.08
2018-05-29T05:23:29.333Z,34.19
2018-05-29T05:24:39.559Z,34.22
2018-05-29T05:25:49.679Z,34.33
2018-05-29T05:26:59.759Z,34.24
2018-05-29T05:28:09.847Z,34.22
2018-05-29T05:29:19.937Z,34.19
2018-05-29T05:30:29.764Z,34.29
2018-05-29T05:31:39.859Z,34.41
2018-05-29T05:32:49.954Z,34.36
2018-05-29T05:33:59.766Z,34.41
2018-05-29T05:35:09.606Z,34.36
2018-05-29T05:36:19.744Z,34.43
2018-05-29T05:37:29.815Z,34.39
2018-05-29T05:38:39.887Z,34.27
2018-05-29T05:39:49.974Z,34.22
2018-05-29T05:41:00.076Z,34.15
2018-05-29T05:42:09.912Z,34.17
2018-05-29T05:43:19.752Z,34.17
2018-05-29T05:44:29.833Z,34.18
2018-05-29T05:45:39.414Z,34.18
2018-05-29T05:46:49.239Z,34.11
2018-05-29T05:47:59.070Z,34.11
2018-05-29T05:49:09.169Z,34.15
2018-05-29T05:50:19.292Z,34.34
2018-05-29T05:51:29.385Z,34.43
2018-05-29T05:52:39.213Z,34.46
2018-05-29T05:53:49.339Z,34.52
2018-05-29T05:54:58.919Z,34.3
2018-05-29T05:56:08.998Z,34.34
2018-05-29T05:57:19.149Z,34.18
2018-05-29T05:58:29.102Z,34.26
2018-05-29T05:59:39.003Z,34.27
2018-05-29T06:00:48.818Z,34.05
2018-05-29T06:01:58.913Z,34.06
2018-05-29T06:03:09.074Z,34.03
2018-05-29T06:04:19.171Z,33.71
2018-05-29T06:05:29.251Z,33.28
2018-05-29T06:06:39.338Z,33.05
2018-05-29T06:07:49.430Z,33.18
2018-05-29T06:08:59.252Z,33.11
2018-05-29T06:10:09.348Z,32.99
2018-05-29T06:11:19.181Z,33.18
2018-05-29T06:12:29.278Z,33.12
2018-05-29T06:13:39.096Z,33.29
2018-05-29T06:14:49.180Z,33.24
2018-05-29T06:15:59.322Z,32.84
2018-05-29T06:17:09.163Z,32.46
2018-05-29T06:18:19.247Z,32.43
2018-05-29T06:19:29.073Z,32.28
2018-05-29T06:20:38.909Z,32.59
2018-05-29T06:21:49.074Z,32.9
2018-05-29T06:22:59.173Z,33.16
2018-05-29T06:24:09.273Z,33.31
2018-05-29T06:25:19.372Z,33.36
2018-05-29T06:26:29.466Z,33.41
2018-05-29T06:27:39.572Z,33.31
2018-05-29T06:28:49.397Z,33.18
2018-05-29T06:29:59.235Z,33.18
2018-05-29T06:31:09.370Z,33.06
2018-05-29T06:32:19.461Z,32.93
2018-05-29T06:33:29.569Z,32.83
2018-05-29T06:34:39.656Z,32.47
2018-05-29T06:35:49.476Z,32.69
2018-05-29T06:36:59.560Z,32.62
2018-05-29T06:38:09.442Z,32.57
2018-05-29T06:39:19.620Z,32.35
2018-05-29T06:40:29.718Z,32.25
2018-05-29T06:41:39.593Z,32.2
2018-05-29T06:42:49.687Z,32.1
2018-05-29T06:43:59.506Z,32.12
2018-05-29T06:45:10.067Z,32.01
2018-05-29T06:46:20.287Z,32.08
2018-05-29T06:47:30.123Z,31.95
2018-05-29T06:48:40.221Z,31.82
2018-05-29T06:49:50.068Z,31.86
2018-05-29T06:51:00.196Z,31.77
2018-05-29T06:52:10.290Z,31.74
2018-05-29T06:53:20.103Z,31.71
2018-05-29T06:54:29.930Z,31.65
2018-05-29T06:55:40.071Z,31.62
2018-05-29T06:56:50.158Z,31.58
2018-05-29T06:58:00.240Z,31.43
2018-05-29T06:59:10.331Z,31.49
2018-05-29T07:00:20.174Z,31.38
2018-05-29T07:01:30.055Z,31.26
2018-05-29T07:02:40.137Z,31.21
2018-05-29T07:03:50.252Z,31.16
2018-05-29T07:05:00.434Z,31.08
2018-05-29T07:06:10.525Z,31.06
2018-05-29T07:07:20.670Z,30.91
2018-05-29T07:08:30.760Z,30.88
2018-05-29T07:09:40.580Z,30.85
2018-05-29T07:10:50.670Z,30.82
2018-05-29T07:12:00.770Z,30.77
2018-05-29T07:13:10.351Z,30.63
2018-05-29T07:14:20.182Z,30.52
2018-05-29T07:15:30.012Z,30.56
2018-05-29T07:16:39.838Z,30.49
2018-05-29T07:17:49.664Z,30.6
2018-05-29T07:18:59.777Z,30.54
2018-05-29T07:20:09.626Z,30.69
2018-05-29T07:21:19.709Z,30.64
2018-05-29T07:22:29.786Z,30.56
2018-05-29T07:23:39.626Z,30.62
2018-05-29T07:24:49.642Z,30.71
2018-05-29T07:25:59.711Z,30.73
2018-05-29T07:27:09.808Z,30.7
2018-05-29T07:28:19.665Z,30.6
2018-05-29T07:29:29.748Z,30.62
2018-05-29T07:30:39.634Z,30.63
2018-05-29T07:31:49.766Z,30.73
2018-05-29T07:32:59.867Z,30.7
2018-05-29T07:34:09.682Z,30.79
2018-05-29T07:35:19.775Z,30.78
2018-05-29T07:36:29.873Z,30.73
2018-05-29T07:37:39.963Z,30.77
2018-05-29T07:38:50.100Z,30.77
2018-05-29T07:40:00.002Z,30.77
2018-05-29T07:41:10.113Z,30.75
2018-05-29T07:42:19.940Z,30.81
2018-05-29T07:43:29.758Z,30.81
2018-05-29T07:44:39.833Z,30.82
2018-05-29T07:45:49.645Z,30.82
2018-05-29T07:46:59.467Z,30.88
2018-05-29T07:48:09.559Z,30.88
2018-05-29T07:49:19.636Z,30.88
2018-05-29T07:50:29.727Z,30.93
2018-05-29T07:51:39.798Z,30.86
2018-05-29T07:52:49.618Z,30.97
2018-05-29T07:53:59.687Z,30.94
2018-05-29T07:55:09.779Z,30.91
2018-05-29T07:56:19.847Z,30.99
2018-05-29T07:57:29.916Z,31.06
2018-05-29T07:58:39.754Z,31.1
2018-05-29T07:59:49.851Z,31.16
2018-05-29T08:00:59.664Z,31.3
2018-05-29T08:02:09.757Z,31.26
2018-05-29T08:03:19.851Z,31.28
2018-05-29T08:04:29.684Z,31.31
2018-05-29T08:05:39.571Z,31.43
2018-05-29T08:06:49.675Z,31.56
2018-05-29T08:07:59.748Z,31.52
2018-05-29T08:09:09.596Z,31.53
2018-05-29T08:10:19.157Z,31.58
2018-05-29T08:11:28.970Z,31.63
2018-05-29T08:12:38.546Z,31.71
2018-05-29T08:13:48.381Z,31.71
2018-05-29T08:14:58.210Z,31.81
2018-05-29T08:16:08.285Z,31.81
2018-05-29T08:17:18.097Z,31.87
2018-05-29T08:18:28.221Z,31.86
2018-05-29T08:19:38.382Z,31.94
2018-05-29T08:20:48.460Z,31.91
2018-05-29T08:21:58.283Z,31.86
2018-05-29T08:23:08.112Z,31.94
2018-05-29T08:24:18.046Z,31.91
2018-05-29T08:25:28.140Z,31.78
2018-05-29T08:26:38.231Z,31.81
2018-05-29T08:27:48.066Z,31.88
2018-05-29T08:28:58.234Z,31.9
2018-05-29T08:30:08.058Z,31.88
2018-05-29T08:31:18.146Z,31.98
2018-05-29T08:32:28.263Z,32.03
2018-05-29T08:33:38.366Z,32.13
2018-05-29T08:34:48.497Z,32.17
2018-05-29T08:35:58.580Z,32.23
2018-05-29T08:37:08.411Z,32.3
2018-05-29T08:38:18.508Z,32.32
2018-05-29T08:39:28.823Z,32.32
2018-05-29T08:40:38.787Z,32.49
2018-05-29T08:41:48.861Z,32.5
2018-05-29T08:42:58.953Z,32.46
2018-05-29T08:44:08.777Z,32.5
2018-05-29T08:45:18.883Z,32.5
2018-05-29T08:46:29.149Z,32.67
2018-05-29T08:47:38.454Z,32.67
2018-05-29T08:48:48.264Z,32.72
2018-05-29T08:49:58.092Z,32.8
2018-05-29T08:51:08.163Z,32.81
2018-05-29T08:52:18.293Z,32.8
2018-05-29T08:53:28.146Z,32.79
2018-05-29T08:54:38.246Z,32.76
2018-05-29T08:55:48.083Z,32.8
2018-05-29T08:56:58.303Z,32.72
2018-05-29T08:58:07.865Z,32.72
2018-05-29T08:59:17.970Z,32.71
2018-05-29T09:00:28.066Z,32.75
2018-05-29T09:01:38.147Z,32.84
2018-05-29T09:02:48.245Z,32.9
2018-05-29T09:03:58.442Z,32.9
2018-05-29T09:05:08.725Z,32.94
2018-05-29T09:06:18.826Z,33.01
2018-05-29T09:07:28.936Z,32.96
2018-05-29T09:08:38.774Z,32.94
2018-05-29T09:09:48.887Z,32.83
2018-05-29T09:10:58.717Z,32.9
2018-05-29T09:12:08.816Z,32.81
2018-05-29T09:13:18.622Z,32.86
2018-05-29T09:14:28.453Z,32.84
2018-05-29T09:15:38.353Z,32.91
2018-05-29T09:16:48.452Z,32.91
2018-05-29T09:17:58.537Z,32.98
2018-05-29T09:19:08.363Z,32.98
2018-05-29T09:20:18.456Z,33.08
2018-05-29T09:21:28.285Z,33.21
2018-05-29T09:22:38.129Z,33.16
2018-05-29T09:23:48.262Z,33.28
2018-05-29T09:24:58.116Z,33.24
2018-05-29T09:26:08.465Z,33.36
2018-05-29T09:27:18.609Z,33.4
2018-05-29T09:28:28.721Z,33.36
2018-05-29T09:29:39.090Z,33.32
2018-05-29T09:30:48.847Z,33.24
2018-05-29T09:31:58.730Z,33.26
2018-05-29T09:33:09.106Z,33.31
2018-05-29T09:34:19.216Z,33.36
2018-05-29T09:35:29.393Z,33.39
2018-05-29T09:36:39.511Z,33.43
2018-05-29T09:37:49.610Z,33.37
2018-05-29T09:38:59.705Z,33.32
2018-05-29T09:40:09.025Z,33.44
2018-05-29T09:41:18.853Z,33.55
2018-05-29T09:42:28.959Z,33.46
2018-05-29T09:43:38.792Z,33.61
2018-05-29T09:44:49.063Z,33.55
2018-05-29T09:45:59.424Z,33.62
2018-05-29T09:47:09.615Z,33.62
2018-05-29T09:48:19.897Z,33.62
2018-05-29T09:49:30.119Z,33.65
2018-05-29T09:50:40.224Z,33.73
2018-05-29T09:51:50.329Z,33.73
2018-05-29T09:53:00.680Z,33.73
2018-05-29T09:54:10.772Z,33.78
2018-05-29T09:55:20.595Z,33.78
2018-05-29T09:56:30.685Z,33.71
2018-05-29T09:57:40.793Z,33.73
2018-05-29T09:58:50.891Z,33.61
2018-05-29T10:00:00.978Z,33.65
2018-05-29T10:01:12.338Z,33.65
2018-05-29T10:02:23.605Z,33.61
2018-05-29T10:03:33.769Z,33.62
2018-05-29T10:04:43.948Z,33.73
2018-05-29T10:05:54.056Z,33.77
2018-05-29T10:07:04.343Z,33.78
2018-05-29T10:08:14.927Z,33.75
2018-05-29T10:09:25.167Z,33.85
2018-05-29T10:10:35.378Z,33.81
2018-05-29T10:11:45.534Z,33.9
2018-05-29T10:12:55.735Z,34.02
2018-05-29T10:14:05.773Z,34.11
2018-05-29T10:15:16.113Z,34.11
2018-05-29T10:16:26.228Z,34.29
2018-05-29T10:17:36.384Z,34.36
2018-05-29T10:18:46.644Z,34.4
2018-05-29T10:19:56.892Z,34.43
2018-05-29T10:21:07.114Z,34.39
2018-05-29T10:22:17.262Z,34.45
2018-05-29T10:23:27.659Z,34.43
2018-05-29T10:24:37.984Z,34.46
2018-05-29T10:25:48.060Z,34.43
2018-05-29T10:26:58.388Z,34.49
2018-05-29T10:28:09.087Z,34.45
2018-05-29T10:29:18.971Z,34.46
2018-05-29T10:30:29.554Z,34.43
2018-05-29T10:31:39.963Z,34.3
2018-05-29T10:32:50.164Z,34.39
2018-05-29T10:34:00.346Z,34.34
2018-05-29T10:35:10.522Z,34.36
2018-05-29T10:36:20.905Z,34.32
2018-05-29T10:37:31.076Z,34.51
2018-05-29T10:38:41.216Z,34.43
2018-05-29T10:39:51.357Z,34.52
2018-05-29T10:41:01.547Z,34.48
2018-05-29T10:42:11.399Z,34.45
2018-05-29T10:43:21.489Z,34.52
2018-05-29T10:44:31.395Z,34.24
2018-05-29T10:45:41.495Z,34.46
2018-05-29T10:46:51.328Z,34.58
2018-05-29T10:48:01.437Z,34.83
2018-05-29T10:49:11.524Z,34.91
2018-05-29T10:50:21.407Z,35.04
2018-05-29T10:51:31.507Z,35.02
2018-05-29T10:52:41.728Z,34.9
2018-05-29T10:53:51.562Z,34.93
2018-05-29T10:55:01.712Z,34.94
2018-05-29T10:56:11.573Z,35.02
2018-05-29T10:57:21.675Z,35.15
2018-05-29T10:58:31.776Z,35.26
2018-05-29T10:59:41.886Z,35.27
2018-05-29T11:00:52.002Z,35.31
2018-05-29T11:02:02.096Z,35.52
2018-05-29T11:03:11.923Z,35.72
2018-05-29T11:04:22.048Z,35.84
2018-05-29T11:05:32.142Z,35.8
2018-05-29T11:06:42.229Z,36.12
2018-05-29T11:07:52.209Z,36.32
2018-05-29T11:09:02.050Z,36.21
2018-05-29T11:10:12.164Z,36.43
2018-05-29T11:11:22.269Z,36.43
2018-05-29T11:12:32.377Z,36.44
2018-05-29T11:13:42.469Z,36.62
2018-05-29T11:14:52.596Z,36.63
2018-05-29T11:16:02.422Z,36.63
2018-05-29T11:17:12.263Z,36.73
2018-05-29T11:18:22.362Z,36.84
2018-05-29T11:19:32.453Z,36.93
2018-05-29T11:20:42.288Z,37.02
2018-05-29T11:21:52.413Z,37.08
2018-05-29T11:23:02.516Z,37.11
2018-05-29T11:24:12.073Z,37.22
2018-05-29T11:25:22.174Z,37.18
2018-05-29T11:26:32.268Z,37.36
2018-05-29T11:27:42.380Z,37.69
2018-05-29T11:28:52.218Z,37.91
2018-05-29T11:30:01.790Z,38
2018-05-29T11:31:11.700Z,37.72
2018-05-29T11:32:21.938Z,37.36
2018-05-29T11:33:32.051Z,37.49
2018-05-29T11:34:41.893Z,37.51
2018-05-29T11:35:52.009Z,37.26
2018-05-29T11:37:02.109Z,37.12
2018-05-29T11:38:12.218Z,36.88
2018-05-29T11:39:22.332Z,36.8
2018-05-29T11:40:32.176Z,36.93
2018-05-29T11:41:42.291Z,37.33
2018-05-29T11:42:52.435Z,37.19
2018-05-29T11:44:02.527Z,37.26
2018-05-29T11:45:12.650Z,37.23
2018-05-29T11:46:22.487Z,37.71
2018-05-29T11:47:33.332Z,38.02
2018-05-29T11:48:45.077Z,38.1
2018-05-29T11:49:56.674Z,38.3
2018-05-29T11:51:07.751Z,38.24
2018-05-29T11:52:18.897Z,38
2018-05-29T11:53:30.920Z,37.56
2018-05-29T11:54:42.830Z,37.36
2018-05-29T11:55:53.654Z,37.51
2018-05-29T11:57:04.320Z,37.56
2018-05-29T11:58:15.006Z,37.22
2018-05-29T11:59:24.859Z,36.92
2018-05-29T12:00:35.080Z,36.65
2018-05-29T12:01:45.607Z,36.43
2018-05-29T12:02:55.811Z,36.28
2018-05-29T12:04:06.215Z,36.34
2018-05-29T12:05:16.337Z,36.43
2018-05-29T12:06:26.443Z,36.63
2018-05-29T12:07:36.698Z,36.89
2018-05-29T12:08:46.656Z,37.07
2018-05-29T12:09:56.761Z,37.04
2018-05-29T12:11:06.881Z,36.83
2018-05-29T12:12:16.738Z,36.67
2018-05-29T12:13:26.843Z,36.67
2018-05-29T12:14:36.942Z,36.39
2018-05-29T12:15:46.781Z,35.95
2018-05-29T12:16:57.078Z,35.43
2018-05-29T12:18:06.920Z,35.01
2018-05-29T12:19:17.033Z,34.45
2018-05-29T12:20:26.868Z,34
2018-05-29T12:21:36.691Z,33.5
2018-05-29T12:22:46.841Z,33.18
2018-05-29T12:23:56.973Z,32.72
2018-05-29T12:25:07.075Z,32.52
2018-05-29T12:26:17.189Z,32.3
2018-05-29T12:27:27.045Z,32.09
2018-05-29T12:28:37.142Z,31.82
2018-05-29T12:29:47.300Z,31.81
2018-05-29T12:30:57.410Z,31.7
2018-05-29T12:32:07.249Z,31.58
2018-05-29T12:33:17.088Z,31.38
2018-05-29T12:34:27.383Z,31.45
2018-05-29T12:35:37.559Z,31.45
2018-05-29T12:36:47.653Z,31.59
2018-05-29T12:37:59.446Z,31.74
2018-05-29T12:39:10.498Z,31.97
2018-05-29T12:40:20.724Z,32.03
2018-05-29T12:41:30.902Z,32.12
2018-05-29T12:42:41.003Z,32.16
2018-05-29T12:43:51.126Z,32.2
2018-05-29T12:45:01.257Z,32.15
2018-05-29T12:46:11.258Z,32.13
2018-05-29T12:47:21.579Z,32.15
2018-05-29T12:48:31.681Z,32.12
2018-05-29T12:49:41.509Z,32.09
2018-05-29T12:50:51.624Z,32.08
2018-05-29T12:52:01.729Z,32.08
2018-05-29T12:53:11.825Z,32.08
2018-05-29T12:54:21.996Z,32.25
2018-05-29T12:55:32.082Z,32.45
2018-05-29T13:04:24.475Z,33.21
2018-05-29T13:05:34.690Z,33.02
2018-05-29T13:06:44.790Z,33.03
2018-05-29T13:07:54.602Z,33.2
2018-05-29T13:09:04.446Z,33.41
2018-05-29T13:10:14.588Z,33.73
2018-05-29T13:11:24.826Z,33.74
2018-05-29T13:12:34.922Z,33.78
2018-05-29T13:13:45.028Z,33.77
2018-05-29T13:14:55.121Z,34.1
2018-05-29T13:16:05.289Z,34.03
2018-05-29T13:17:15.129Z,34
2018-05-29T13:18:25.237Z,34.03
2018-05-29T13:19:35.351Z,34.14
2018-05-29T13:20:45.465Z,34.54
2018-05-29T13:21:55.577Z,34.99
2018-05-29T13:23:05.807Z,35.16
2018-05-29T13:24:15.935Z,35.01
2018-05-29T13:25:25.790Z,34.89
2018-05-29T13:26:35.630Z,34.67
2018-05-29T13:27:45.833Z,34.67
2018-05-29T13:28:56.187Z,34.69
2018-05-29T13:30:06.306Z,34.55
2018-05-29T13:31:16.463Z,34.56
2018-05-29T13:32:26.311Z,34.83
2018-05-29T13:33:36.521Z,34.93
2018-05-29T13:34:46.625Z,35.18
2018-05-29T13:35:56.757Z,35.38
2018-05-29T13:37:06.938Z,35.53
2018-05-29T13:38:17.083Z,35.53
2018-05-29T13:39:27.441Z,35.82
2018-05-29T13:40:37.568Z,35.96
2018-05-29T13:41:47.698Z,36.05
2018-05-29T13:42:57.545Z,35.65
2018-05-29T13:44:07.644Z,35.3
2018-05-29T13:45:17.797Z,35.05
2018-05-29T13:46:27.909Z,35.02
2018-05-29T13:47:38.041Z,34.87
2018-05-29T13:48:48.124Z,34.61
2018-05-29T13:49:58.239Z,34.46
2018-05-29T13:51:08.335Z,34.27
2018-05-29T13:52:18.444Z,33.99
2018-05-29T13:53:28.295Z,33.9
2018-05-29T13:54:38.159Z,33.71
2018-05-29T13:55:48.243Z,33.61
2018-05-29T13:56:58.113Z,33.66
2018-05-29T13:58:08.242Z,33.58
2018-05-29T13:59:18.488Z,33.39
2018-05-29T14:00:28.587Z,33.21
2018-05-29T14:01:38.666Z,33.21
2018-05-29T14:02:48.827Z,33.47
2018-05-29T14:03:58.926Z,33.61
2018-05-29T14:05:09.031Z,33.61
2018-05-29T14:06:18.869Z,33.89
2018-05-29T14:07:28.988Z,34
2018-05-29T14:08:38.818Z,34.27
2018-05-29T14:09:48.891Z,34.34
2018-05-29T14:10:59.010Z,34.52
2018-05-29T14:12:09.124Z,34.63
2018-05-29T14:13:18.965Z,34.66
2018-05-29T14:14:29.088Z,34.72
2018-05-29T14:15:38.909Z,34.79
2018-05-29T14:16:48.734Z,34.77
2018-05-29T14:17:58.817Z,34.64
2018-05-29T14:19:08.893Z,34.55
2018-05-29T14:20:18.787Z,34.54
2018-05-29T14:21:28.905Z,34.48
2018-05-29T14:22:39.007Z,34.39
2018-05-29T14:23:49.113Z,34.36
2018-05-29T14:24:59.233Z,34.17
2018-05-29T14:26:09.384Z,34.22
2018-05-29T14:27:19.234Z,34.18
2018-05-29T14:28:29.355Z,34.26
2018-05-29T14:29:39.476Z,34.06
2018-05-29T14:30:49.597Z,33.93
2018-05-29T14:31:59.705Z,33.9
2018-05-29T14:33:09.841Z,33.73
2018-05-29T14:34:19.682Z,33.4
2018-05-29T14:35:29.780Z,33.13
2018-05-29T14:36:39.744Z,33.4
2018-05-29T14:37:50.051Z,33.52
2018-05-29T14:38:59.891Z,33.63
2018-05-29T14:40:10.002Z,33.69
2018-05-29T14:41:20.128Z,33.9
2018-05-29T14:42:29.973Z,33.92
2018-05-29T14:43:39.871Z,34.05
2018-05-29T14:44:50.079Z,34.12
2018-05-29T14:46:00.369Z,34.02
2018-05-29T14:47:10.209Z,33.84
2018-05-29T14:48:20.343Z,33.78
2018-05-29T14:49:30.244Z,33.83
2018-05-29T14:50:40.456Z,33.66
2018-05-29T14:51:50.285Z,33.37
2018-05-29T14:53:00.402Z,33.21
2018-05-29T14:54:10.226Z,33.06
2018-05-29T14:55:20.056Z,32.86
2018-05-29T14:56:30.136Z,32.67
2018-05-29T14:57:40.217Z,32.53
2018-05-29T14:58:50.385Z,32.43
2018-05-29T15:00:00.477Z,32.38
2018-05-29T15:01:10.360Z,32.31
2018-05-29T15:02:20.465Z,32.34
2018-05-29T15:03:30.316Z,32.43
2018-05-29T15:04:40.417Z,32.68
2018-05-29T15:05:49.743Z,32.8
2018-05-29T15:06:59.606Z,32.83
2018-05-29T15:08:09.700Z,33.03
2018-05-29T15:09:19.819Z,33.17
2018-05-29T15:10:30.158Z,33.26
2018-05-29T15:11:40.257Z,33.36
2018-05-29T15:12:50.428Z,33.36
2018-05-29T15:14:00.520Z,33.21
2018-05-29T15:15:10.622Z,33.03
2018-05-29T15:16:20.709Z,33.13
2018-05-29T15:17:30.849Z,33.21
2018-05-29T15:18:41.181Z,33.26
2018-05-29T15:19:51.292Z,33.28
2018-05-29T15:21:01.402Z,33.36
2018-05-29T15:22:11.523Z,33.37
2018-05-29T15:23:21.652Z,33.32
2018-05-29T15:24:31.742Z,33.37
2018-05-29T15:25:42.003Z,33.39
2018-05-29T15:26:52.197Z,33.36
2018-05-29T15:28:02.292Z,33.37
2018-05-29T15:29:12.476Z,33.17
2018-05-29T15:30:22.594Z,32.98
2018-05-29T15:31:32.423Z,32.87
2018-05-29T15:32:42.251Z,32.75
2018-05-29T15:33:52.359Z,32.47
2018-05-29T15:35:02.501Z,32.38
2018-05-29T15:36:12.609Z,32.24
2018-05-29T15:37:22.189Z,32.17
2018-05-29T15:38:32.034Z,32.24
2018-05-29T15:39:42.154Z,32.45
2018-05-29T15:40:52.469Z,32.47
2018-05-29T15:42:02.576Z,32.37
2018-05-29T15:43:12.695Z,32.32